createdAt,value
2023-01-20T00:01:12.226Z,51.70
2023-01-20T00:03:40.402Z,51.80
2023-01-20T00:06:08.564Z,51.70
2023-01-20T00:08:39.326Z,51.60
2023-01-20T00:11:07.537Z,51.70
2023-01-20T00:13:35.580Z,51.60
2023-01-20T00:16:03.729Z,51.70
2023-01-20T00:18:33.416Z,51.70
2023-01-20T00:21:03.693Z,51.60
2023-01-20T00:23:31.814Z,51.70
2023-01-20T00:26:02.883Z,51.60
2023-01-20T00:28:33.965Z,51.70
2023-01-20T00:31:12.252Z,51.90
2023-01-20T00:33:42.413Z,51.70
2023-01-20T00:36:10.944Z,51.60
2023-01-20T00:38:39.134Z,51.60
2023-01-20T00:41:07.833Z,51.60
2023-01-20T00:43:36.547Z,51.60
2023-01-20T00:46:05.260Z,51.50
2023-01-20T00:48:33.994Z,51.60
2023-01-20T00:51:03.550Z,51.50
2023-01-20T00:53:32.022Z,51.50
2023-01-20T00:56:00.622Z,51.40
2023-01-20T00:58:29.695Z,51.50
2023-01-20T01:00:59.288Z,51.50
2023-01-20T01:03:28.110Z,51.40
2023-01-20T01:05:56.117Z,51.30
2023-01-20T01:08:25.768Z,51.30
2023-01-20T01:10:56.550Z,51.40
2023-01-20T01:13:27.414Z,51.30
2023-01-20T01:15:55.128Z,51.40
2023-01-20T01:18:23.382Z,51.40
2023-01-20T01:20:51.409Z,51.30
2023-01-20T01:23:19.614Z,51.30
2023-01-20T01:25:49.208Z,51.10
2023-01-20T01:28:17.053Z,51.10
2023-01-20T01:30:44.961Z,51.20
2023-01-20T01:33:13.127Z,51.20
2023-01-20T01:35:41.052Z,51.30
2023-01-20T01:38:08.984Z,51.30
2023-01-20T01:40:41.093Z,51.30
2023-01-20T01:43:22.693Z,51.30
2023-01-20T01:45:57.617Z,51.40
2023-01-20T01:48:28.306Z,51.40
2023-01-20T01:50:59.229Z,51.50
2023-01-20T01:53:28.370Z,51.40
2023-01-20T01:55:59.125Z,51.40
2023-01-20T01:58:32.018Z,51.40
2023-01-20T02:01:01.501Z,51.40
2023-01-20T02:03:30.646Z,51.70
2023-01-20T02:05:58.956Z,51.40
2023-01-20T02:08:26.896Z,51.50
2023-01-20T02:10:54.869Z,51.70
2023-01-20T02:13:22.913Z,51.70
2023-01-20T02:16:10.424Z,51.70
2023-01-20T02:18:45.335Z,51.70
2023-01-20T02:21:44.154Z,51.80
2023-01-20T02:24:36.127Z,51.90
2023-01-20T02:27:08.020Z,52.00
2023-01-20T02:29:58.719Z,52.20
2023-01-20T02:32:33.225Z,52.20
2023-01-20T02:35:02.813Z,52.30
2023-01-20T02:37:31.143Z,52.20
2023-01-20T02:40:07.762Z,52.30
2023-01-20T02:42:39.480Z,52.30
2023-01-20T02:45:10.018Z,52.30
2023-01-20T02:47:41.307Z,52.40
2023-01-20T02:50:23.146Z,52.50
2023-01-20T02:52:52.676Z,52.50
2023-01-20T02:55:23.649Z,52.50
2023-01-20T02:57:54.404Z,52.50
2023-01-20T03:00:24.077Z,52.50
2023-01-20T03:02:54.360Z,52.60
2023-01-20T03:05:26.109Z,52.60
2023-01-20T03:07:53.846Z,52.60
2023-01-20T03:10:22.591Z,52.80
2023-01-20T03:12:52.371Z,52.70
2023-01-20T03:15:21.985Z,52.70
2023-01-20T03:17:49.668Z,52.70
2023-01-20T03:20:19.213Z,52.90
2023-01-20T03:22:46.921Z,52.80
2023-01-20T03:25:16.426Z,52.80
2023-01-20T03:27:47.663Z,52.70
2023-01-20T03:30:16.628Z,52.90
2023-01-20T03:32:46.475Z,52.80
2023-01-20T03:35:16.230Z,52.80
2023-01-20T03:37:45.944Z,52.70
2023-01-20T03:40:14.641Z,52.90
2023-01-20T03:42:45.218Z,52.90
2023-01-20T03:45:16.578Z,52.80
2023-01-20T03:47:50.062Z,52.90
2023-01-20T03:50:22.899Z,52.90
2023-01-20T03:52:53.211Z,52.90
2023-01-20T03:55:22.886Z,53.10
2023-01-20T03:57:54.296Z,53.00
2023-01-20T04:00:22.652Z,53.00
2023-01-20T04:02:50.675Z,53.20
2023-01-20T04:05:18.704Z,53.10
2023-01-20T04:07:46.617Z,53.10
2023-01-20T04:10:17.312Z,53.20
2023-01-20T04:12:46.330Z,53.20
2023-01-20T04:15:14.855Z,53.30
2023-01-20T04:17:43.390Z,53.40
2023-01-20T04:20:12.435Z,53.30
2023-01-20T04:22:43.523Z,53.30
2023-01-20T04:25:15.287Z,53.40
2023-01-20T04:27:45.936Z,53.50
2023-01-20T04:30:15.213Z,53.40
2023-01-20T04:32:43.545Z,53.40
2023-01-20T04:35:13.849Z,53.40
2023-01-20T04:37:42.427Z,53.40
2023-01-20T04:40:11.493Z,53.50
2023-01-20T04:42:39.676Z,53.50
2023-01-20T04:45:10.379Z,53.50
2023-01-20T04:47:38.967Z,53.60
2023-01-20T04:50:08.081Z,53.70
2023-01-20T04:52:36.322Z,53.50
2023-01-20T04:55:04.708Z,53.70
2023-01-20T04:57:32.776Z,53.70
2023-01-20T05:00:00.651Z,53.70
2023-01-20T05:02:30.081Z,53.60
2023-01-20T05:04:58.468Z,53.70
2023-01-20T05:07:26.694Z,53.70
2023-01-20T05:09:54.721Z,53.70
2023-01-20T05:12:23.115Z,53.80
2023-01-20T05:14:51.150Z,53.80
2023-01-20T05:17:19.127Z,53.80
2023-01-20T05:19:48.541Z,53.80
2023-01-20T05:22:33.397Z,53.80
2023-01-20T05:25:01.414Z,53.80
2023-01-20T05:27:29.463Z,53.80
2023-01-20T05:29:57.472Z,53.80
2023-01-20T05:32:25.666Z,53.70
2023-01-20T05:34:55.477Z,53.80
2023-01-20T05:37:23.383Z,53.70
2023-01-20T05:39:51.491Z,53.90
2023-01-20T05:42:20.409Z,53.90
2023-01-20T05:44:48.325Z,53.90
2023-01-20T05:47:19.594Z,53.90
2023-01-20T05:49:47.530Z,53.90
2023-01-20T05:52:16.914Z,53.90
2023-01-20T05:54:45.267Z,53.90
2023-01-20T05:57:18.054Z,53.90
2023-01-20T05:59:47.636Z,54.00
2023-01-20T06:02:19.422Z,53.90
2023-01-20T06:04:48.016Z,54.00
2023-01-20T06:07:17.391Z,53.90
2023-01-20T06:09:45.348Z,54.10
2023-01-20T06:12:13.283Z,54.00
2023-01-20T06:14:41.080Z,54.20
2023-01-20T06:17:09.006Z,54.10
2023-01-20T06:19:36.978Z,54.10
2023-01-20T06:22:05.260Z,54.10
2023-01-20T06:24:34.651Z,54.10
2023-01-20T06:27:02.755Z,54.30
2023-01-20T06:29:31.572Z,54.10
2023-01-20T06:31:59.300Z,54.20
2023-01-20T06:34:27.079Z,54.20
2023-01-20T06:36:55.016Z,54.30
2023-01-20T06:39:23.036Z,54.20
2023-01-20T06:41:52.400Z,54.30
2023-01-20T06:44:20.328Z,54.30
2023-01-20T06:46:48.422Z,54.40
2023-01-20T06:49:16.379Z,54.40
2023-01-20T06:51:44.201Z,54.30
2023-01-20T06:54:12.503Z,54.20
2023-01-20T06:56:40.503Z,54.30
2023-01-20T06:59:10.851Z,54.20
2023-01-20T07:01:39.035Z,54.40
2023-01-20T07:04:08.271Z,54.30
2023-01-20T07:06:38.366Z,54.30
2023-01-20T07:09:07.182Z,54.40
2023-01-20T07:11:35.967Z,54.20
2023-01-20T07:14:04.177Z,54.30
2023-01-20T07:16:33.718Z,54.30
2023-01-20T07:19:01.777Z,54.30
2023-01-20T07:21:29.878Z,54.40
2023-01-20T07:24:00.559Z,54.40
2023-01-20T07:26:28.326Z,54.40
2023-01-20T07:28:56.045Z,54.30
2023-01-20T07:31:26.681Z,54.40
2023-01-20T07:33:56.978Z,54.30
2023-01-20T07:36:25.423Z,54.30
2023-01-20T07:38:53.405Z,54.30
2023-01-20T07:41:21.322Z,54.30
2023-01-20T07:43:49.894Z,54.20
2023-01-20T07:46:17.709Z,54.40
2023-01-20T07:48:45.791Z,54.20
2023-01-20T07:51:15.511Z,54.20
2023-01-20T07:53:47.241Z,54.20
2023-01-20T07:56:15.887Z,54.30
2023-01-20T07:58:45.179Z,54.20
2023-01-20T08:01:14.055Z,54.10
2023-01-20T08:03:41.820Z,54.20
2023-01-20T08:06:10.603Z,54.10
2023-01-20T08:08:39.653Z,54.20
2023-01-20T08:11:08.693Z,54.20
2023-01-20T08:13:36.527Z,54.20
2023-01-20T08:16:06.264Z,54.10
2023-01-20T08:18:34.184Z,54.20
2023-01-20T08:21:01.921Z,54.30
2023-01-20T08:23:29.631Z,54.30
2023-01-20T08:26:00.241Z,54.30
2023-01-20T08:28:28.263Z,54.20
2023-01-20T08:30:56.108Z,54.20
2023-01-20T08:33:23.880Z,54.20
2023-01-20T08:35:51.757Z,54.10
2023-01-20T08:38:19.907Z,54.10
2023-01-20T08:40:47.589Z,54.20
2023-01-20T08:43:17.356Z,54.10
2023-01-20T08:45:45.299Z,54.30
2023-01-20T08:48:13.585Z,54.40
2023-01-20T08:50:41.513Z,54.30
2023-01-20T08:53:10.128Z,54.30
2023-01-20T08:55:38.629Z,54.20
2023-01-20T08:58:06.566Z,54.40
2023-01-20T09:00:35.894Z,54.30
2023-01-20T09:03:03.809Z,54.30
2023-01-20T09:05:31.683Z,54.30
2023-01-20T09:08:00.003Z,54.20
2023-01-20T09:10:27.929Z,54.30
2023-01-20T09:12:56.273Z,54.30
2023-01-20T09:15:25.632Z,54.30
2023-01-20T09:17:55.219Z,54.30
2023-01-20T09:20:23.729Z,54.30
2023-01-20T09:22:51.632Z,54.40
2023-01-20T09:25:19.393Z,54.20
2023-01-20T09:27:47.158Z,54.20
2023-01-20T09:30:15.732Z,54.10
2023-01-20T09:32:46.208Z,54.10
2023-01-20T09:35:15.715Z,54.10
2023-01-20T09:38:01.561Z,54.10
2023-01-20T09:40:50.202Z,54.00
2023-01-20T09:43:42.105Z,54.10
2023-01-20T09:46:11.347Z,54.00
2023-01-20T09:49:00.386Z,54.10
2023-01-20T09:51:49.451Z,54.10
2023-01-20T09:54:19.306Z,54.20
2023-01-20T09:56:48.244Z,54.10
2023-01-20T09:59:17.351Z,54.10
2023-01-20T10:01:46.604Z,54.20
2023-01-20T10:04:16.267Z,54.10
2023-01-20T10:06:46.281Z,54.10
2023-01-20T10:09:21.343Z,54.00
2023-01-20T10:11:49.917Z,54.00
2023-01-20T10:14:19.853Z,53.90
2023-01-20T10:16:51.945Z,54.00
2023-01-20T10:19:27.267Z,53.90
2023-01-20T10:21:59.612Z,53.80
2023-01-20T10:24:30.415Z,53.80
2023-01-20T10:26:59.691Z,53.60
2023-01-20T10:29:30.302Z,53.70
2023-01-20T10:32:00.768Z,53.50
2023-01-20T10:34:32.536Z,53.50
2023-01-20T10:37:04.787Z,53.50
2023-01-20T10:39:36.416Z,53.30
2023-01-20T10:42:06.582Z,53.40
2023-01-20T10:44:37.118Z,53.40
2023-01-20T10:47:19.876Z,53.40
2023-01-20T10:50:17.168Z,53.40
2023-01-20T10:53:13.616Z,53.40
2023-01-20T10:55:48.823Z,53.40
2023-01-20T10:58:19.556Z,54.00
2023-01-20T11:00:47.528Z,53.50
2023-01-20T11:03:16.875Z,53.60
2023-01-20T11:05:44.839Z,53.50
2023-01-20T11:08:17.049Z,53.80
2023-01-20T11:10:45.704Z,53.70
2023-01-20T11:13:13.756Z,53.70
2023-01-20T11:15:44.984Z,53.70
2023-01-20T11:18:21.368Z,53.60
2023-01-20T11:20:50.084Z,53.80
2023-01-20T11:23:23.140Z,53.70
2023-01-20T11:25:57.864Z,53.80
2023-01-20T11:28:25.900Z,53.70
2023-01-20T11:30:55.189Z,53.80
2023-01-20T11:33:24.402Z,53.70
2023-01-20T11:36:00.006Z,53.80
2023-01-20T11:38:30.125Z,53.90
2023-01-20T11:40:58.455Z,54.00
2023-01-20T11:43:30.725Z,54.00
2023-01-20T11:46:12.591Z,53.90
2023-01-20T11:48:40.894Z,54.00
2023-01-20T11:51:19.805Z,54.00
2023-01-20T11:53:49.319Z,54.00
2023-01-20T11:56:19.678Z,54.20
2023-01-20T11:58:52.718Z,54.10
2023-01-20T12:01:23.730Z,54.10
2023-01-20T12:04:14.987Z,54.20
2023-01-20T12:06:47.934Z,54.10
2023-01-20T12:09:17.832Z,54.20
2023-01-20T12:11:50.584Z,54.30
2023-01-20T12:14:28.446Z,54.20
2023-01-20T12:17:16.717Z,54.20
2023-01-20T12:19:59.071Z,54.20
2023-01-20T12:22:29.381Z,54.20
2023-01-20T12:25:10.259Z,54.20
2023-01-20T12:27:42.442Z,54.30
2023-01-20T12:30:32.116Z,54.30
2023-01-20T12:33:00.049Z,54.30
2023-01-20T12:35:30.320Z,54.20
2023-01-20T12:37:58.876Z,54.20
2023-01-20T12:40:38.175Z,54.30
2023-01-20T12:43:27.141Z,54.30
2023-01-20T12:46:01.115Z,54.20
2023-01-20T12:48:35.244Z,54.20
2023-01-20T12:51:11.117Z,55.00
2023-01-20T12:53:51.889Z,54.30
2023-01-20T12:56:25.098Z,54.40
2023-01-20T12:58:58.110Z,54.50
2023-01-20T13:01:50.533Z,54.50
2023-01-20T13:04:56.212Z,54.50
2023-01-20T13:07:39.820Z,54.50
2023-01-20T13:10:18.099Z,54.60
2023-01-20T13:12:52.185Z,54.80
2023-01-20T13:15:22.397Z,54.90
2023-01-20T13:18:02.289Z,54.90
2023-01-20T13:20:30.135Z,55.00
2023-01-20T13:22:59.914Z,55.00
2023-01-20T13:25:27.713Z,55.00
2023-01-20T13:27:57.710Z,55.10
2023-01-20T13:30:43.881Z,55.00
2023-01-20T13:33:17.185Z,55.10
2023-01-20T13:35:46.944Z,55.10
2023-01-20T13:38:25.123Z,55.20
2023-01-20T13:40:54.680Z,55.20
2023-01-20T13:43:58.263Z,55.30
2023-01-20T13:46:53.546Z,55.10
2023-01-20T13:49:46.121Z,55.10
2023-01-20T13:52:14.553Z,55.30
2023-01-20T13:54:43.934Z,55.40
2023-01-20T13:57:44.829Z,55.30
2023-01-20T14:00:15.987Z,55.10
2023-01-20T14:02:43.760Z,55.30
2023-01-20T14:05:22.719Z,55.30
2023-01-20T14:07:51.511Z,55.20
2023-01-20T14:10:20.016Z,55.10
2023-01-20T14:12:47.727Z,55.20
2023-01-20T14:15:35.097Z,55.10
2023-01-20T14:18:02.947Z,55.10
2023-01-20T14:20:31.169Z,55.10
2023-01-20T14:23:35.817Z,55.20
2023-01-20T14:26:07.047Z,55.00
2023-01-20T14:28:35.555Z,55.10
2023-01-20T14:31:19.003Z,55.10
2023-01-20T14:33:48.548Z,55.00
2023-01-20T14:36:18.061Z,55.10
2023-01-20T14:38:57.261Z,55.10
2023-01-20T14:41:27.879Z,55.30
2023-01-20T14:43:55.930Z,55.20
2023-01-20T14:46:25.724Z,55.20
2023-01-20T14:48:54.334Z,55.30
2023-01-20T14:51:22.779Z,56.00
2023-01-20T14:54:24.064Z,55.40
2023-01-20T14:56:51.957Z,55.10
2023-01-20T14:59:20.341Z,55.20
2023-01-20T15:01:55.106Z,55.20
2023-01-20T15:04:23.144Z,55.20
2023-01-20T15:06:55.402Z,55.10
2023-01-20T15:09:28.373Z,55.10
2023-01-20T15:12:29.941Z,55.00
2023-01-20T15:15:01.941Z,54.90
2023-01-20T15:17:31.246Z,55.00
2023-01-20T15:19:59.200Z,54.90
2023-01-20T15:22:28.029Z,54.80
2023-01-20T15:24:56.005Z,54.90
2023-01-20T15:27:29.377Z,55.00
2023-01-20T15:30:16.356Z,54.90
2023-01-20T15:32:46.369Z,55.10
2023-01-20T15:35:15.556Z,55.00
2023-01-20T15:37:43.958Z,55.00
2023-01-20T15:40:17.241Z,55.00
2023-01-20T15:42:45.407Z,55.10
2023-01-20T15:45:14.922Z,55.10
2023-01-20T15:47:42.876Z,55.10
2023-01-20T15:50:15.857Z,55.10
2023-01-20T15:52:44.581Z,55.00
2023-01-20T15:55:15.317Z,55.00
2023-01-20T15:57:43.221Z,55.00
2023-01-20T16:00:18.650Z,54.90
2023-01-20T16:02:46.556Z,54.80
2023-01-20T16:05:17.734Z,54.70
2023-01-20T16:07:47.378Z,54.70
2023-01-20T16:10:17.618Z,54.60
2023-01-20T16:12:45.737Z,54.60
2023-01-20T16:15:17.938Z,54.60
2023-01-20T16:17:45.826Z,54.40
2023-01-20T16:20:19.973Z,54.40
2023-01-20T16:22:47.802Z,54.40
2023-01-20T16:25:16.426Z,54.20
2023-01-20T16:27:44.468Z,54.30
2023-01-20T16:30:16.107Z,54.10
2023-01-20T16:32:46.433Z,54.10
2023-01-20T16:35:14.879Z,54.00
2023-01-20T16:37:44.430Z,53.90
2023-01-20T16:40:14.608Z,53.80
2023-01-20T16:42:42.731Z,53.80
2023-01-20T16:45:23.923Z,53.70
2023-01-20T16:47:51.827Z,53.60
2023-01-20T16:50:19.737Z,53.60
2023-01-20T16:52:48.807Z,53.50
2023-01-20T16:55:16.620Z,53.50
2023-01-20T16:57:44.629Z,53.40
2023-01-20T17:00:15.619Z,53.40
2023-01-20T17:02:45.692Z,53.30
2023-01-20T17:05:13.950Z,53.20
2023-01-20T17:07:42.026Z,53.20
2023-01-20T17:10:12.918Z,53.10
2023-01-20T17:12:41.400Z,53.10
2023-01-20T17:15:09.703Z,53.00
2023-01-20T17:17:38.748Z,52.90
2023-01-20T17:20:10.176Z,52.80
2023-01-20T17:22:39.230Z,52.80
2023-01-20T17:25:08.497Z,52.70
2023-01-20T17:27:38.170Z,52.70
2023-01-20T17:30:07.534Z,52.60
2023-01-20T17:32:35.412Z,52.60
2023-01-20T17:35:03.168Z,52.50
2023-01-20T17:37:31.156Z,52.30
2023-01-20T17:39:59.710Z,53.00
2023-01-20T17:42:27.406Z,52.20
2023-01-20T17:44:58.841Z,52.30
2023-01-20T17:47:26.703Z,52.30
2023-01-20T17:49:54.682Z,52.40
2023-01-20T17:52:22.811Z,52.50
2023-01-20T17:54:50.743Z,52.70
2023-01-20T17:57:18.657Z,52.50
2023-01-20T17:59:46.884Z,52.60
2023-01-20T18:02:18.445Z,52.70
2023-01-20T18:04:46.771Z,52.90
2023-01-20T18:07:14.478Z,52.80
2023-01-20T18:09:43.123Z,52.90
2023-01-20T18:12:11.138Z,52.90
2023-01-20T18:14:39.291Z,53.00
2023-01-20T18:17:07.584Z,53.10
2023-01-20T18:19:36.661Z,53.00
2023-01-20T18:22:07.619Z,53.00
2023-01-20T18:24:35.573Z,53.10
2023-01-20T18:27:03.967Z,53.10
2023-01-20T18:29:32.105Z,53.10
2023-01-20T18:32:00.728Z,53.20
2023-01-20T18:34:28.790Z,53.10
2023-01-20T18:36:58.219Z,53.10
2023-01-20T18:39:26.998Z,53.20
2023-01-20T18:41:54.969Z,53.20
2023-01-20T18:44:23.167Z,53.20
2023-01-20T18:46:50.862Z,53.30
2023-01-20T18:49:18.691Z,53.10
2023-01-20T18:51:46.449Z,53.20
2023-01-20T18:54:17.895Z,53.20
2023-01-20T18:56:45.593Z,53.20
2023-01-20T18:59:13.348Z,53.10
2023-01-20T19:01:41.336Z,53.20
2023-01-20T19:04:10.740Z,53.20
2023-01-20T19:06:39.265Z,53.30
2023-01-20T19:09:07.483Z,53.20
2023-01-20T19:11:39.374Z,53.10
2023-01-20T19:14:07.265Z,53.20
2023-01-20T19:16:37.710Z,53.20
2023-01-20T19:19:06.516Z,53.20
2023-01-20T19:21:36.448Z,53.20
2023-01-20T19:24:07.854Z,53.10
2023-01-20T19:26:38.056Z,53.20
2023-01-20T19:29:07.113Z,53.20
2023-01-20T19:31:36.001Z,53.20
2023-01-20T19:34:03.828Z,53.10
2023-01-20T19:36:32.012Z,53.10
2023-01-20T19:39:00.826Z,53.10
2023-01-20T19:41:29.375Z,53.10
2023-01-20T19:43:59.570Z,53.00
2023-01-20T19:46:28.476Z,53.10
2023-01-20T19:48:57.805Z,53.10
2023-01-20T19:51:25.787Z,53.20
2023-01-20T19:53:55.998Z,53.20
2023-01-20T19:56:23.744Z,53.10
2023-01-20T19:58:52.962Z,53.20
2023-01-20T20:01:22.810Z,53.30
2023-01-20T20:03:51.292Z,53.20
2023-01-20T20:06:27.413Z,53.20
2023-01-20T20:08:57.476Z,53.10
2023-01-20T20:11:25.371Z,53.20
2023-01-20T20:13:56.395Z,53.10
2023-01-20T20:16:28.798Z,53.20
2023-01-20T20:18:56.765Z,53.20
2023-01-20T20:21:24.748Z,53.00
2023-01-20T20:23:52.890Z,53.20
2023-01-20T20:26:21.495Z,53.10
2023-01-20T20:28:51.097Z,53.00
2023-01-20T20:31:19.557Z,53.00
2023-01-20T20:33:48.983Z,53.10
2023-01-20T20:36:17.380Z,53.10
2023-01-20T20:38:51.202Z,53.00
2023-01-20T20:41:19.645Z,53.20
2023-01-20T20:43:47.356Z,53.10
2023-01-20T20:46:16.220Z,53.70
2023-01-20T20:48:43.907Z,53.00
2023-01-20T20:51:14.777Z,53.10
2023-01-20T20:53:43.291Z,53.10
2023-01-20T20:56:13.157Z,53.00
2023-01-20T20:58:59.440Z,53.10
2023-01-20T21:01:29.445Z,52.90
2023-01-20T21:03:58.108Z,52.90
2023-01-20T21:06:28.010Z,52.80
2023-01-20T21:08:56.358Z,52.80
2023-01-20T21:11:25.040Z,52.80
2023-01-20T21:13:53.833Z,52.70
2023-01-20T21:16:23.386Z,52.70
2023-01-20T21:18:52.239Z,52.80
2023-01-20T21:21:20.154Z,52.80
2023-01-20T21:23:53.471Z,52.80
2023-01-20T21:26:21.372Z,52.80
2023-01-20T21:28:50.019Z,52.70
2023-01-20T21:31:20.756Z,52.80
2023-01-20T21:33:53.441Z,52.70
2023-01-20T21:36:26.387Z,52.70
2023-01-20T21:38:56.297Z,52.80
2023-01-20T21:41:24.260Z,52.80
2023-01-20T21:44:09.791Z,52.80
2023-01-20T21:46:39.795Z,52.80
2023-01-20T21:49:25.737Z,52.80
2023-01-20T21:52:11.966Z,52.80
2023-01-20T21:54:42.087Z,52.90
2023-01-20T21:57:09.983Z,52.70
2023-01-20T21:59:37.905Z,53.50
2023-01-20T22:02:06.134Z,52.90
2023-01-20T22:04:33.986Z,52.80
2023-01-20T22:07:02.062Z,52.80
2023-01-20T22:09:29.869Z,52.90
2023-01-20T22:11:59.224Z,52.70
2023-01-20T22:14:27.120Z,52.60
2023-01-20T22:16:55.630Z,52.80
2023-01-20T22:19:23.580Z,52.70
2023-01-20T22:21:51.607Z,52.70
2023-01-20T22:24:19.630Z,52.70
2023-01-20T22:26:48.173Z,52.80
2023-01-20T22:29:17.930Z,52.80
2023-01-20T22:31:46.065Z,52.70
2023-01-20T22:34:14.030Z,52.80
2023-01-20T22:36:41.993Z,52.70
2023-01-20T22:39:11.411Z,52.80
2023-01-20T22:41:39.327Z,52.70
2023-01-20T22:44:07.792Z,52.70
2023-01-20T22:46:37.210Z,52.70
2023-01-20T22:49:05.742Z,52.70
2023-01-20T22:51:33.610Z,52.70
2023-01-20T22:54:02.008Z,52.70
2023-01-20T22:56:30.467Z,52.80
2023-01-20T22:58:58.532Z,52.70
2023-01-20T23:01:27.332Z,52.80
2023-01-20T23:03:57.138Z,52.70
2023-01-20T23:06:25.707Z,52.60
2023-01-20T23:08:53.534Z,52.70
2023-01-20T23:11:22.661Z,52.70
2023-01-20T23:13:50.681Z,52.70
2023-01-20T23:16:19.892Z,52.70
2023-01-20T23:18:47.678Z,52.70
2023-01-20T23:21:16.797Z,52.70
2023-01-20T23:23:44.667Z,52.70
2023-01-20T23:26:14.796Z,52.70
2023-01-20T23:28:42.930Z,52.60
2023-01-20T23:31:12.135Z,52.70
2023-01-20T23:33:41.886Z,52.70
2023-01-20T23:36:12.920Z,52.80
2023-01-20T23:38:42.546Z,52.70
2023-01-20T23:41:10.534Z,52.60
2023-01-20T23:43:38.399Z,52.60
2023-01-20T23:46:06.685Z,52.80
2023-01-20T23:48:34.608Z,52.60
2023-01-20T23:51:03.616Z,52.70
2023-01-20T23:53:31.969Z,52.70
2023-01-20T23:56:01.649Z,52.60
2023-01-20T23:58:29.538Z,52.70
